createdAt,value
2022-12-06T00:00:51.890Z,33.25
2022-12-06T00:03:19.564Z,33.92
2022-12-06T00:05:47.200Z,35.72
2022-12-06T00:08:15.116Z,36.05
2022-12-06T00:10:42.807Z,36.33
2022-12-06T00:13:11.795Z,37.33
2022-12-06T00:15:39.430Z,37.90
2022-12-06T00:18:07.232Z,38.63
2022-12-06T00:20:35.023Z,39.42
2022-12-06T00:23:02.721Z,40.67
2022-12-06T00:25:30.453Z,41.60
2022-12-06T00:27:58.113Z,42.88
2022-12-06T00:30:27.152Z,42.25
2022-12-06T00:32:54.799Z,44.08
2022-12-06T00:35:22.444Z,45.10
2022-12-06T00:37:50.104Z,44.33
2022-12-06T00:40:17.777Z,45.78
2022-12-06T00:42:45.435Z,45.20
2022-12-06T00:45:13.101Z,48.08
2022-12-06T00:47:42.092Z,46.50
2022-12-06T00:50:10.726Z,48.15
2022-12-06T00:52:38.380Z,48.30
2022-12-06T00:55:06.833Z,50.10
2022-12-06T00:57:34.477Z,49.92
2022-12-06T01:00:02.476Z,52.67
2022-12-06T01:02:30.327Z,52.20
2022-12-06T01:04:59.335Z,51.70
2022-12-06T01:07:26.987Z,53.53
2022-12-06T01:09:54.627Z,52.60
2022-12-06T01:12:22.279Z,54.45
2022-12-06T01:14:49.955Z,53.90
2022-12-06T01:17:17.610Z,56.33
2022-12-06T01:19:45.249Z,56.15
2022-12-06T01:22:14.239Z,56.15
2022-12-06T01:24:41.890Z,57.25
2022-12-06T01:27:09.557Z,58.22
2022-12-06T01:29:37.415Z,60.03
2022-12-06T01:32:05.355Z,60.42
2022-12-06T01:34:33.089Z,61.30
2022-12-06T01:37:00.736Z,60.47
2022-12-06T01:39:29.694Z,61.72
2022-12-06T01:41:57.336Z,64.35
2022-12-06T01:44:40.177Z,65.07
2022-12-06T01:47:09.542Z,66.05
2022-12-06T01:49:37.204Z,65.88
2022-12-06T01:52:06.831Z,67.93
2022-12-06T01:54:35.826Z,71.20
2022-12-06T01:57:05.024Z,70.10
2022-12-06T01:59:32.674Z,69.95
2022-12-06T02:02:00.398Z,71.78
2022-12-06T02:04:28.159Z,74.22
2022-12-06T02:06:55.850Z,76.95
2022-12-06T02:09:23.518Z,74.28
2022-12-06T02:11:52.537Z,75.78
2022-12-06T02:14:21.083Z,77.80
2022-12-06T02:17:13.378Z,77.88
2022-12-06T02:19:54.901Z,83.88
2022-12-06T02:22:25.672Z,82.28
2022-12-06T02:25:11.770Z,81.53
2022-12-06T02:27:54.787Z,84.10
2022-12-06T02:30:37.972Z,85.22
2022-12-06T02:33:07.554Z,87.97
2022-12-06T02:35:36.627Z,89.22
2022-12-06T02:38:11.428Z,88.20
2022-12-06T02:40:42.915Z,90.47
2022-12-06T02:43:12.191Z,90.97
2022-12-06T02:45:44.611Z,94.75
2022-12-06T02:48:12.337Z,93.65
2022-12-06T02:50:41.386Z,95.03
2022-12-06T02:53:11.784Z,95.50
2022-12-06T02:55:39.432Z,97.55
2022-12-06T02:58:07.201Z,95.78
2022-12-06T03:00:37.612Z,96.70
2022-12-06T03:03:38.375Z,98.90
2022-12-06T03:06:44.808Z,98.60
2022-12-06T03:09:19.320Z,100.15
2022-12-06T03:11:52.148Z,100.82
2022-12-06T03:14:21.741Z,96.57
2022-12-06T03:16:50.154Z,99.30
2022-12-06T03:19:20.578Z,98.28
2022-12-06T03:21:49.746Z,98.82
2022-12-06T03:24:17.486Z,95.88
2022-12-06T03:26:46.846Z,96.20
2022-12-06T03:29:15.147Z,96.90
2022-12-06T03:31:42.813Z,96.97
2022-12-06T03:34:11.698Z,97.40
2022-12-06T03:36:40.766Z,97.75
2022-12-06T03:39:08.621Z,94.25
2022-12-06T03:41:38.279Z,94.55
2022-12-06T03:44:05.957Z,93.18
2022-12-06T03:46:35.054Z,91.88
2022-12-06T03:49:03.253Z,91.03
2022-12-06T03:51:32.259Z,91.70
2022-12-06T03:54:01.973Z,90.07
2022-12-06T03:56:29.742Z,90.07
2022-12-06T03:58:57.415Z,88.40
2022-12-06T04:01:25.209Z,89.35
2022-12-06T04:03:52.993Z,86.57
2022-12-06T04:06:20.813Z,84.57
2022-12-06T04:08:48.453Z,83.32
2022-12-06T04:11:17.486Z,82.55
2022-12-06T04:13:45.226Z,81.13
2022-12-06T04:16:26.946Z,80.38
2022-12-06T04:18:54.743Z,81.57
2022-12-06T04:21:40.142Z,78.25
2022-12-06T04:24:07.840Z,76.15
2022-12-06T04:26:37.222Z,75.18
2022-12-06T04:29:22.489Z,77.15
2022-12-06T04:32:07.964Z,72.60
2022-12-06T04:34:53.502Z,71.35
2022-12-06T04:37:38.988Z,72.35
2022-12-06T04:40:08.143Z,70.93
2022-12-06T04:42:54.644Z,69.22
2022-12-06T04:45:22.444Z,67.20
2022-12-06T04:47:50.261Z,65.97
2022-12-06T04:50:18.122Z,65.57
2022-12-06T04:52:46.155Z,63.75
2022-12-06T04:55:13.867Z,63.53
2022-12-06T04:57:42.872Z,62.40
2022-12-06T05:00:11.620Z,60.97
2022-12-06T05:02:39.388Z,60.30
2022-12-06T05:05:08.121Z,58.60
2022-12-06T05:07:35.960Z,57.97
2022-12-06T05:10:03.914Z,56.47
2022-12-06T05:12:31.606Z,55.00
2022-12-06T05:15:00.617Z,55.83
2022-12-06T05:17:28.360Z,54.42
2022-12-06T05:19:56.015Z,53.60
2022-12-06T05:22:23.803Z,52.60
2022-12-06T05:24:52.371Z,51.20
2022-12-06T05:27:20.127Z,50.88
2022-12-06T05:29:47.817Z,50.65
2022-12-06T05:32:16.886Z,48.80
2022-12-06T05:34:44.670Z,47.67
2022-12-06T05:37:12.346Z,47.28
2022-12-06T05:39:40.076Z,46.70
2022-12-06T05:42:07.788Z,45.83
2022-12-06T05:44:35.500Z,44.08
2022-12-06T05:47:03.166Z,42.40
2022-12-06T05:49:32.174Z,42.58
2022-12-06T05:52:03.825Z,42.30
2022-12-06T05:54:31.921Z,41.03
2022-12-06T05:56:59.622Z,39.70
2022-12-06T05:59:27.314Z,38.97
2022-12-06T06:01:55.174Z,38.47
2022-12-06T06:04:27.085Z,38.13
2022-12-06T06:06:56.258Z,36.42
2022-12-06T06:09:24.457Z,36.75
2022-12-06T06:11:52.112Z,36.42
2022-12-06T06:14:19.818Z,34.92
2022-12-06T06:16:47.547Z,34.88
2022-12-06T06:19:15.257Z,34.45
2022-12-06T06:21:42.912Z,33.05
2022-12-06T06:24:11.976Z,32.17
2022-12-06T06:26:39.765Z,32.15
2022-12-06T06:29:07.447Z,31.27
2022-12-06T06:31:35.256Z,30.27
2022-12-06T06:34:03.672Z,29.80
2022-12-06T06:36:31.407Z,30.23
2022-12-06T06:38:59.769Z,28.92
2022-12-06T06:41:28.799Z,28.80
2022-12-06T06:46:49.627Z,26.45
2022-12-06T06:49:18.698Z,26.27
2022-12-06T06:51:46.448Z,25.55
2022-12-06T06:54:15.286Z,24.08
2022-12-06T06:56:44.359Z,23.98
2022-12-06T06:59:12.059Z,22.77
2022-12-06T07:01:39.823Z,23.45
2022-12-06T07:04:07.889Z,22.73
2022-12-06T07:06:35.683Z,22.23
2022-12-06T07:09:03.404Z,21.50
2022-12-06T07:11:31.151Z,21.30
2022-12-06T07:14:00.730Z,20.25
2022-12-06T07:16:28.472Z,19.98
2022-12-06T07:18:56.196Z,19.17
2022-12-06T07:21:24.187Z,19.52
2022-12-06T07:23:52.109Z,19.00
2022-12-06T07:26:20.684Z,18.40
2022-12-06T07:28:49.264Z,17.77
2022-12-06T07:31:19.245Z,18.02
2022-12-06T07:33:47.437Z,17.52
2022-12-06T07:36:15.665Z,17.08
2022-12-06T07:38:43.613Z,16.80
2022-12-06T07:41:26.322Z,16.00
2022-12-06T07:44:12.479Z,16.00
2022-12-06T07:46:41.546Z,15.63
2022-12-06T07:49:09.267Z,15.38
2022-12-06T07:51:37.151Z,15.38
2022-12-06T07:54:05.149Z,14.77
2022-12-06T07:56:32.782Z,14.73
2022-12-06T07:59:00.455Z,14.38
2022-12-06T08:01:28.207Z,14.50
2022-12-06T08:03:58.212Z,13.63
2022-12-06T08:06:25.962Z,13.73
2022-12-06T08:08:53.794Z,13.23
2022-12-06T08:11:22.385Z,13.20
2022-12-06T08:13:50.086Z,12.63
2022-12-06T08:16:17.841Z,13.02
2022-12-06T08:18:45.605Z,12.43
2022-12-06T08:21:16.424Z,12.55
2022-12-06T08:23:44.088Z,12.18
2022-12-06T08:26:13.900Z,12.00
2022-12-06T08:28:43.081Z,11.73
2022-12-06T08:31:12.306Z,11.18
2022-12-06T08:33:39.995Z,11.20
2022-12-06T08:36:09.324Z,10.95
2022-12-06T08:38:38.796Z,11.30
2022-12-06T08:41:06.798Z,11.40
2022-12-06T08:43:34.446Z,11.20
2022-12-06T08:46:02.204Z,10.60
2022-12-06T08:48:29.899Z,10.90
2022-12-06T08:50:57.544Z,10.38
2022-12-06T08:53:25.214Z,10.43
2022-12-06T08:56:02.413Z,10.23
2022-12-06T08:58:30.702Z,10.32
2022-12-06T09:00:58.468Z,10.35
2022-12-06T09:03:26.148Z,10.05
2022-12-06T09:05:53.896Z,9.90
2022-12-06T09:08:21.605Z,9.48
2022-12-06T09:10:49.282Z,9.52
2022-12-06T09:13:18.295Z,9.82
2022-12-06T09:15:45.990Z,9.13
2022-12-06T09:18:13.727Z,9.80
2022-12-06T09:20:41.623Z,9.55
2022-12-06T09:23:09.356Z,9.15
2022-12-06T09:25:37.152Z,8.65
2022-12-06T09:28:04.969Z,8.60
2022-12-06T09:30:34.082Z,8.82
2022-12-06T09:33:01.852Z,8.77
2022-12-06T09:35:29.882Z,8.60
2022-12-06T09:37:57.743Z,8.43
2022-12-06T09:40:29.083Z,8.70
2022-12-06T09:43:02.375Z,8.13
2022-12-06T09:45:37.710Z,8.50
2022-12-06T09:48:28.242Z,8.90
2022-12-06T09:51:01.425Z,8.40
2022-12-06T09:53:33.967Z,8.50
2022-12-06T09:56:05.287Z,8.80
2022-12-06T09:58:50.146Z,8.18
2022-12-06T10:01:23.138Z,8.35
2022-12-06T10:03:58.788Z,7.88
2022-12-06T10:06:27.848Z,8.05
2022-12-06T10:09:13.183Z,7.78
2022-12-06T10:11:56.506Z,7.88
2022-12-06T10:14:33.108Z,8.00
2022-12-06T10:17:04.346Z,8.02
2022-12-06T10:19:39.826Z,7.75
2022-12-06T10:22:12.495Z,7.70
2022-12-06T10:24:47.262Z,7.18
2022-12-06T10:27:20.086Z,7.72
2022-12-06T10:29:53.890Z,7.60
2022-12-06T10:32:28.861Z,7.45
2022-12-06T10:34:57.489Z,7.30
2022-12-06T10:37:35.821Z,7.40
2022-12-06T10:40:08.610Z,7.20
2022-12-06T10:42:38.284Z,7.68
2022-12-06T10:45:29.048Z,7.28
2022-12-06T10:47:57.108Z,7.07
2022-12-06T10:50:26.260Z,7.13
2022-12-06T10:53:01.531Z,7.32
2022-12-06T10:55:32.271Z,7.25
2022-12-06T10:58:04.079Z,6.45
2022-12-06T11:00:32.275Z,7.00
2022-12-06T11:03:04.402Z,7.10
2022-12-06T11:05:33.228Z,6.95
2022-12-06T11:08:04.423Z,7.10
2022-12-06T11:10:33.622Z,7.03
2022-12-06T11:13:04.479Z,6.70
2022-12-06T11:15:34.284Z,7.05
2022-12-06T11:18:06.317Z,6.80
2022-12-06T11:20:35.144Z,6.90
2022-12-06T11:23:07.098Z,6.60
2022-12-06T11:25:41.694Z,6.93
2022-12-06T11:28:21.436Z,6.75
2022-12-06T11:30:50.350Z,6.50
2022-12-06T11:33:19.406Z,6.57
2022-12-06T11:35:47.343Z,6.53
2022-12-06T11:38:15.319Z,6.60
2022-12-06T11:40:43.781Z,6.55
2022-12-06T11:43:16.151Z,6.30
2022-12-06T11:45:45.346Z,5.97
2022-12-06T11:48:14.959Z,6.53
2022-12-06T11:50:44.033Z,6.40
2022-12-06T11:53:14.898Z,6.10
2022-12-06T11:55:43.910Z,6.30
2022-12-06T11:58:14.833Z,6.47
2022-12-06T12:00:57.039Z,6.00
2022-12-06T12:03:29.186Z,6.55
2022-12-06T12:06:10.261Z,6.20
2022-12-06T12:08:38.081Z,5.90
2022-12-06T12:11:06.003Z,6.35
2022-12-06T12:13:45.734Z,6.30
2022-12-06T12:16:18.775Z,6.30
2022-12-06T12:18:55.779Z,5.80
2022-12-06T12:21:38.736Z,5.93
2022-12-06T12:24:07.136Z,5.47
2022-12-06T12:26:40.311Z,5.88
2022-12-06T12:29:16.594Z,6.35
2022-12-06T12:31:52.614Z,5.78
2022-12-06T12:34:20.887Z,5.82
2022-12-06T12:36:51.371Z,5.65
2022-12-06T12:39:29.516Z,5.78
2022-12-06T12:41:57.208Z,5.40
2022-12-06T12:44:42.434Z,6.03
2022-12-06T12:47:17.080Z,5.78
2022-12-06T12:49:44.839Z,5.47
2022-12-06T12:52:28.234Z,5.60
2022-12-06T12:55:00.395Z,5.70
2022-12-06T12:57:28.458Z,5.68
2022-12-06T12:59:56.204Z,5.78
2022-12-06T13:02:26.856Z,5.43
2022-12-06T13:05:17.215Z,5.60
2022-12-06T13:07:46.442Z,5.68
2022-12-06T13:10:19.480Z,5.50
2022-12-06T13:12:48.237Z,5.43
2022-12-06T13:15:17.145Z,5.38
2022-12-06T13:17:46.200Z,5.60
2022-12-06T13:20:22.787Z,5.55
2022-12-06T13:22:53.525Z,5.53
2022-12-06T13:25:21.233Z,5.63
2022-12-06T13:27:51.068Z,5.60
2022-12-06T13:30:20.067Z,5.40
2022-12-06T13:32:49.700Z,5.45
2022-12-06T13:35:23.786Z,5.13
2022-12-06T13:37:56.714Z,5.50
2022-12-06T13:40:47.767Z,5.00
2022-12-06T13:43:58.281Z,5.50
2022-12-06T13:46:31.097Z,5.95
2022-12-06T13:48:59.818Z,5.15
2022-12-06T13:51:47.339Z,5.30
2022-12-06T13:54:32.701Z,5.15
2022-12-06T13:57:01.091Z,5.22
2022-12-06T13:59:38.088Z,5.43
2022-12-06T14:02:47.622Z,5.07
2022-12-06T14:08:19.742Z,4.90
2022-12-06T14:10:48.938Z,4.88
2022-12-06T14:13:18.994Z,5.07
2022-12-06T14:15:48.289Z,5.15
2022-12-06T14:18:20.768Z,5.00
2022-12-06T14:20:48.991Z,5.10
2022-12-06T14:23:24.339Z,4.97
2022-12-06T14:25:53.310Z,4.72
2022-12-06T14:28:20.988Z,4.88
2022-12-06T14:30:48.701Z,5.05
2022-12-06T14:33:20.408Z,4.97
2022-12-06T14:35:50.766Z,5.10
2022-12-06T14:38:22.906Z,5.10
2022-12-06T14:41:08.614Z,4.93
2022-12-06T14:43:37.845Z,4.82
2022-12-06T14:46:06.683Z,4.90
2022-12-06T14:48:48.642Z,4.88
2022-12-06T14:51:23.261Z,4.95
2022-12-06T14:53:51.556Z,4.63
2022-12-06T14:56:22.535Z,4.53
2022-12-06T14:58:51.588Z,4.72
2022-12-06T15:01:20.590Z,4.63
2022-12-06T15:03:58.139Z,4.63
2022-12-06T15:06:26.566Z,4.85
2022-12-06T15:09:05.834Z,4.70
2022-12-06T15:11:52.331Z,4.68
2022-12-06T15:14:22.825Z,4.78
2022-12-06T15:16:58.478Z,4.63
2022-12-06T15:19:26.152Z,4.75
2022-12-06T15:21:53.893Z,4.68
2022-12-06T15:24:22.193Z,4.70
2022-12-06T15:26:49.868Z,4.60
2022-12-06T15:29:17.660Z,4.45
2022-12-06T15:31:49.538Z,4.55
2022-12-06T15:34:25.490Z,4.80
2022-12-06T15:37:08.945Z,4.53
2022-12-06T15:39:40.938Z,4.30
2022-12-06T15:42:17.013Z,4.70
2022-12-06T15:44:49.128Z,4.35
2022-12-06T15:47:19.326Z,4.70
2022-12-06T15:49:47.038Z,4.30
2022-12-06T15:52:16.822Z,4.40
2022-12-06T15:54:44.480Z,4.35
2022-12-06T15:57:12.480Z,4.43
2022-12-06T15:59:40.157Z,4.55
2022-12-06T16:02:14.015Z,4.65
2022-12-06T16:04:43.137Z,4.03
2022-12-06T16:07:11.841Z,4.30
2022-12-06T16:09:39.586Z,4.13
2022-12-06T16:12:07.890Z,4.13
2022-12-06T16:14:35.535Z,4.20
2022-12-06T16:17:03.265Z,4.20
2022-12-06T16:19:50.949Z,3.85
2022-12-06T16:22:39.928Z,4.22
2022-12-06T16:25:07.266Z,4.00
2022-12-06T16:27:34.926Z,4.00
2022-12-06T16:30:02.967Z,4.25
2022-12-06T16:32:30.683Z,3.65
2022-12-06T16:34:58.556Z,4.30
2022-12-06T16:37:27.807Z,3.85
2022-12-06T16:39:55.626Z,3.90
2022-12-06T16:42:23.299Z,3.70
2022-12-06T16:44:53.871Z,4.00
2022-12-06T16:49:49.365Z,3.70
2022-12-06T16:52:17.463Z,3.90
2022-12-06T16:54:46.453Z,3.88
2022-12-06T16:57:14.744Z,3.80
2022-12-06T16:59:43.305Z,3.92
2022-12-06T17:02:32.183Z,3.70
2022-12-06T17:05:01.214Z,3.70
2022-12-06T17:07:29.528Z,3.90
2022-12-06T17:09:58.571Z,3.97
2022-12-06T17:12:26.233Z,3.97
2022-12-06T17:14:53.872Z,3.78
2022-12-06T17:17:22.416Z,3.95
2022-12-06T17:19:50.483Z,3.80
2022-12-06T17:22:18.861Z,4.10
2022-12-06T17:24:46.632Z,3.40
2022-12-06T17:27:15.978Z,3.80
2022-12-06T17:29:43.942Z,3.60
2022-12-06T17:32:11.769Z,3.75
2022-12-06T17:34:39.522Z,3.88
2022-12-06T17:37:07.417Z,3.50
2022-12-06T17:39:35.441Z,3.70
2022-12-06T17:42:20.908Z,3.60
2022-12-06T17:44:50.260Z,3.60
2022-12-06T17:47:17.939Z,3.80
2022-12-06T17:49:45.627Z,3.65
2022-12-06T17:52:13.326Z,3.65
2022-12-06T17:54:41.002Z,3.67
2022-12-06T17:57:09.511Z,3.83
2022-12-06T17:59:37.169Z,3.60
2022-12-06T18:02:15.550Z,3.72
2022-12-06T18:04:44.318Z,3.53
2022-12-06T18:07:12.374Z,3.67
2022-12-06T18:09:40.040Z,3.47
2022-12-06T18:12:08.919Z,3.58
2022-12-06T18:14:36.589Z,3.58
2022-12-06T18:17:05.691Z,3.92
2022-12-06T18:19:33.506Z,3.30
2022-12-06T18:22:01.165Z,3.53
2022-12-06T18:24:35.405Z,3.60
2022-12-06T18:27:03.610Z,3.50
2022-12-06T18:29:31.282Z,3.58
2022-12-06T18:31:58.990Z,3.53
2022-12-06T18:34:28.017Z,3.50
2022-12-06T18:36:55.740Z,3.72
2022-12-06T18:39:25.211Z,3.78
2022-12-06T18:41:53.428Z,3.40
2022-12-06T18:44:21.096Z,3.53
2022-12-06T18:46:48.759Z,3.47
2022-12-06T18:49:16.436Z,3.55
2022-12-06T18:51:45.441Z,3.65
2022-12-06T18:54:14.479Z,3.42
2022-12-06T18:56:42.346Z,3.30
2022-12-06T18:59:10.116Z,3.58
2022-12-06T19:01:38.747Z,3.33
2022-12-06T19:04:07.418Z,3.40
2022-12-06T19:06:35.812Z,3.50
2022-12-06T19:09:06.221Z,3.50
2022-12-06T19:11:36.159Z,3.50
2022-12-06T19:14:03.809Z,3.33
2022-12-06T19:16:34.143Z,3.60
2022-12-06T19:19:02.261Z,3.60
2022-12-06T19:21:30.178Z,3.20
2022-12-06T19:23:58.011Z,3.42
2022-12-06T19:26:27.193Z,3.55
2022-12-06T19:28:55.002Z,3.35
2022-12-06T19:31:22.989Z,3.58
2022-12-06T19:33:51.085Z,3.70
2022-12-06T19:36:22.522Z,3.47
2022-12-06T19:38:50.250Z,3.33
2022-12-06T19:41:18.527Z,3.45
2022-12-06T19:44:05.026Z,3.40
2022-12-06T19:46:32.666Z,3.50
2022-12-06T19:49:01.341Z,3.40
2022-12-06T19:51:29.164Z,3.70
2022-12-06T19:53:57.822Z,3.38
2022-12-06T19:56:25.734Z,3.25
2022-12-06T19:58:55.594Z,3.33
2022-12-06T20:01:24.914Z,3.30
2022-12-06T20:03:52.715Z,3.20
2022-12-06T20:06:21.575Z,3.58
2022-12-06T20:08:49.402Z,3.40
2022-12-06T20:11:36.014Z,3.17
2022-12-06T20:14:05.992Z,3.00
2022-12-06T20:16:35.009Z,3.47
2022-12-06T20:19:02.636Z,3.33
2022-12-06T20:21:30.289Z,3.30
2022-12-06T20:23:58.327Z,3.22
2022-12-06T20:26:26.183Z,2.97
2022-12-06T20:28:53.860Z,3.30
2022-12-06T20:31:24.782Z,3.08
2022-12-06T20:33:52.554Z,3.45
2022-12-06T20:36:20.926Z,2.92
2022-12-06T20:38:48.585Z,3.00
2022-12-06T20:41:17.177Z,3.00
2022-12-06T20:43:45.515Z,3.38
2022-12-06T20:46:15.527Z,3.08
2022-12-06T20:48:44.913Z,3.33
2022-12-06T20:51:13.485Z,3.33
2022-12-06T20:53:41.500Z,3.20
2022-12-06T20:56:10.903Z,3.15
2022-12-06T20:58:38.592Z,3.28
2022-12-06T21:01:06.792Z,2.88
2022-12-06T21:03:34.776Z,3.05
2022-12-06T21:06:05.175Z,3.00
2022-12-06T21:08:33.258Z,3.38
2022-12-06T21:13:49.059Z,3.05
2022-12-06T21:16:17.661Z,2.88
2022-12-06T21:18:45.774Z,2.95
2022-12-06T21:21:22.940Z,2.95
2022-12-06T21:23:50.686Z,2.88
2022-12-06T21:26:18.417Z,2.90
2022-12-06T21:28:46.111Z,2.78
2022-12-06T21:31:14.027Z,2.60
2022-12-06T21:33:41.859Z,2.80
2022-12-06T21:36:10.939Z,3.20
2022-12-06T21:38:40.067Z,3.00
2022-12-06T21:41:08.565Z,2.90
2022-12-06T21:43:36.591Z,3.10
2022-12-06T21:46:08.199Z,3.00
2022-12-06T21:48:35.951Z,3.03
2022-12-06T21:51:04.596Z,3.00
2022-12-06T21:53:32.406Z,2.60
2022-12-06T21:56:03.258Z,2.83
2022-12-06T21:58:31.160Z,2.95
2022-12-06T22:01:04.958Z,2.95
2022-12-06T22:03:32.658Z,3.00
2022-12-06T22:06:03.857Z,2.88
2022-12-06T22:08:31.567Z,2.80
2022-12-06T22:11:00.632Z,2.70
2022-12-06T22:13:28.363Z,2.80
2022-12-06T22:15:56.125Z,2.85
2022-12-06T22:18:23.933Z,2.83
2022-12-06T22:21:00.882Z,2.70
2022-12-06T22:23:28.680Z,3.10
2022-12-06T22:25:56.365Z,2.95
2022-12-06T22:28:44.217Z,2.90
2022-12-06T22:31:12.854Z,2.80
2022-12-06T22:33:40.657Z,3.00
2022-12-06T22:36:08.917Z,2.72
2022-12-06T22:38:36.646Z,2.70
2022-12-06T22:41:04.493Z,2.92
2022-12-06T22:43:33.535Z,2.92
2022-12-06T22:46:04.539Z,2.85
2022-12-06T22:48:32.292Z,2.60
2022-12-06T22:51:11.764Z,2.70
2022-12-06T22:53:39.565Z,2.97
2022-12-06T22:56:07.538Z,2.80
2022-12-06T22:58:36.627Z,2.80
2022-12-06T23:01:15.990Z,2.90
2022-12-06T23:03:44.797Z,2.80
2022-12-06T23:06:12.748Z,3.00
2022-12-06T23:08:40.537Z,2.80
2022-12-06T23:11:09.141Z,2.67
2022-12-06T23:13:38.117Z,2.70
2022-12-06T23:16:08.833Z,2.80
2022-12-06T23:18:36.618Z,2.70
2022-12-06T23:21:05.586Z,2.75
2022-12-06T23:23:33.351Z,2.80
2022-12-06T23:26:04.685Z,2.58
2022-12-06T23:28:32.561Z,2.67
2022-12-06T23:31:05.369Z,2.80
2022-12-06T23:33:33.156Z,2.83
2022-12-06T23:36:05.546Z,2.70
2022-12-06T23:38:33.419Z,2.60
2022-12-06T23:41:05.247Z,2.42
2022-12-06T23:43:33.018Z,2.72
2022-12-06T23:46:06.910Z,2.53
2022-12-06T23:48:36.747Z,2.80
2022-12-06T23:51:05.413Z,2.63
2022-12-06T23:53:33.222Z,2.50
2022-12-06T23:56:01.048Z,2.60
2022-12-06T23:58:28.979Z,2.50
